Aérodrome :
LOGIN :

S'inscrire | Disclaimer

   EN    FR    IT 

 










Légende :    VFR   VFR Marginal   IFR   IFR Intensif   IFR Très Intensif
Visi : 
Plafond : 
>= 8 km
>= 3000ft
5 à 8 km
1000 à 3000 ft
1500m à 5 km
500 à 1000 ft
800 à 1500m
200 à 500 ft
< 800m
< 200 ft
Symboles :   Orages  Brouillard  Fortes neiges  Fortes précipitations  Vent > 20 kt
SIGMETs :   Divers  Orages  Givrage  Turbulence  Onde Orograph.  Cendres Volcan.






- Altitude de l'aérodrome : 257 ft
- Code IATA : MAN


EGCC - Manchester

DERNIER METAR :
  • 110620Z AUTO VRB03KT 9999 NCD 04/02 Q1002 NOSIG

METARs EXPIRÉS :
  • 110550Z AUTO 18005KT 150V220 9999 NCD 03/01 Q1003 NOSIG
  • 110520Z AUTO 18005KT 9999 NCD 03/01 Q1003 NOSIG
  • 110450Z AUTO 19007KT 9999 NCD 04/02 Q1003 NOSIG
  • 110420Z AUTO 19006KT 150V220 9999 NCD 04/01 Q1004 NOSIG
  • 110350Z AUTO 19006KT 9999 NCD 04/01 Q1004 NOSIG

TAF TAF EGCC
Valide du 11 à 06h jusqu'au 12 à 12h UTC


110455Z 1106/1212 19008KT 9999 FEW030
TEMPO 1112/1118 6000 SHRA BKN012
BECMG 1114/1117 25010KT
PROB30
TEMPO 1118/1124 8000 -SHRA BKN014
BECMG 1200/1203 18009KT
PROB40
TEMPO 1206/1212 7000 -RADZ BKN009
ATIS : +44 161 499 2324



MET'MAP, la Météo Aéronautique d'un coup d'oeil ! - Copyright ORBIFLY Décembre 2007 - Disclaimer

ORBIFLY MET'MAP TEAM :

Programmation & Développement : Alexandra Zaïnal
Sur une idée originale de : Baudouin d'Aumeries
Assistance à la programmation : Marc-Olivier Méhu
Soutien technique & logistique : Manuel Goepfert

Contact : metmap@orbifly.com




SOURCES & CREDITS :

   NOAA